createdAt,value
2022-09-16T00:00:20.604Z,12.75
2022-09-16T00:02:47.852Z,12.80
2022-09-16T00:05:14.486Z,12.77
2022-09-16T00:07:40.850Z,12.76
2022-09-16T00:10:07.933Z,12.71
2022-09-16T00:12:34.338Z,12.67
2022-09-16T00:15:00.840Z,12.60
2022-09-16T00:17:28.476Z,12.58
2022-09-16T00:19:54.831Z,12.55
2022-09-16T00:22:21.557Z,12.53
2022-09-16T00:24:49.106Z,12.51
2022-09-16T00:27:15.557Z,12.49
2022-09-16T00:29:42.165Z,12.48
2022-09-16T00:32:08.610Z,12.48
2022-09-16T00:34:35.122Z,12.48
2022-09-16T00:37:03.291Z,12.46
2022-09-16T00:39:30.591Z,12.46
2022-09-16T00:41:56.987Z,12.49
2022-09-16T00:44:57.708Z,12.49
2022-09-16T00:47:31.185Z,12.49
2022-09-16T00:50:13.838Z,12.41
2022-09-16T00:52:41.480Z,12.38
2022-09-16T00:55:11.868Z,12.27
2022-09-16T00:57:40.321Z,12.29
2022-09-16T01:00:10.796Z,12.26
2022-09-16T01:02:37.423Z,12.23
2022-09-16T01:05:12.407Z,12.28
2022-09-16T01:07:47.385Z,12.30
2022-09-16T01:10:17.712Z,12.33
2022-09-16T01:12:48.119Z,12.33
2022-09-16T01:15:18.231Z,12.33
2022-09-16T01:18:12.626Z,12.34
2022-09-16T01:21:00.035Z,12.36
2022-09-16T01:23:53.809Z,12.39
2022-09-16T01:26:58.303Z,12.44
2022-09-16T01:29:33.827Z,12.44
2022-09-16T01:32:12.960Z,12.48
2022-09-16T01:34:58.308Z,12.47
2022-09-16T01:37:51.106Z,12.48
2022-09-16T01:40:29.258Z,12.48
2022-09-16T01:43:09.920Z,12.44
2022-09-16T01:46:07.518Z,12.35
2022-09-16T01:48:58.547Z,12.27
2022-09-16T01:52:00.927Z,12.20
2022-09-16T01:54:37.280Z,12.13
2022-09-16T01:57:17.751Z,12.06
2022-09-16T01:59:59.480Z,12.03
2022-09-16T02:02:44.059Z,11.97
2022-09-16T02:05:16.438Z,11.99
2022-09-16T02:07:50.931Z,11.96
2022-09-16T02:10:26.230Z,11.93
2022-09-16T02:12:55.919Z,11.95
2022-09-16T02:15:25.156Z,11.94
2022-09-16T02:17:59.772Z,11.92
2022-09-16T02:20:30.637Z,11.89
2022-09-16T02:23:06.927Z,11.91
2022-09-16T02:25:38.221Z,11.92
2022-09-16T02:28:12.983Z,11.93
2022-09-16T02:30:44.060Z,11.91
2022-09-16T02:33:13.443Z,11.93
2022-09-16T02:35:41.434Z,11.96
2022-09-16T02:38:14.820Z,11.98
2022-09-16T02:40:51.212Z,12.00
2022-09-16T02:43:17.970Z,12.02
2022-09-16T02:46:08.547Z,12.03
2022-09-16T02:48:43.222Z,12.01
2022-09-16T02:51:18.333Z,12.00
2022-09-16T02:54:05.065Z,11.99
2022-09-16T02:56:35.755Z,12.01
2022-09-16T02:59:05.828Z,12.02
2022-09-16T03:01:36.859Z,12.04
2022-09-16T03:04:04.445Z,12.09
2022-09-16T03:06:36.143Z,12.11
2022-09-16T03:09:06.754Z,12.17
2022-09-16T03:11:59.844Z,12.15
2022-09-16T03:15:03.914Z,12.12
2022-09-16T03:18:04.460Z,12.09
2022-09-16T03:20:51.646Z,12.04
2022-09-16T03:23:54.759Z,12.00
2022-09-16T03:26:52.273Z,11.94
2022-09-16T03:29:27.995Z,11.86
2022-09-16T03:32:06.624Z,11.84
2022-09-16T03:34:48.596Z,11.90
2022-09-16T03:37:19.151Z,11.95
2022-09-16T03:39:55.584Z,11.96
2022-09-16T03:42:22.644Z,11.88
2022-09-16T03:44:49.093Z,11.85
2022-09-16T03:47:16.789Z,11.92
2022-09-16T03:49:43.463Z,11.94
2022-09-16T03:52:10.700Z,11.95
2022-09-16T03:54:38.080Z,11.94
2022-09-16T03:57:05.642Z,11.96
2022-09-16T03:59:32.522Z,11.91
2022-09-16T04:01:58.980Z,11.90
2022-09-16T04:04:25.608Z,11.91
2022-09-16T04:06:52.175Z,11.91
2022-09-16T04:09:18.542Z,11.90
2022-09-16T04:11:45.191Z,11.86
2022-09-16T04:14:12.083Z,11.82
2022-09-16T04:16:41.769Z,11.80
2022-09-16T04:19:13.418Z,11.78
2022-09-16T04:21:40.473Z,11.78
2022-09-16T04:24:13.651Z,11.77
2022-09-16T04:26:41.321Z,11.73
2022-09-16T04:29:08.107Z,11.70
2022-09-16T04:31:34.657Z,11.69
2022-09-16T04:34:12.746Z,11.67
2022-09-16T04:36:39.820Z,11.72
2022-09-16T04:39:06.836Z,11.74
2022-09-16T04:41:33.416Z,11.74
2022-09-16T04:44:01.105Z,11.71
2022-09-16T04:46:32.564Z,11.70
2022-09-16T04:49:00.142Z,11.67
2022-09-16T04:51:28.422Z,11.63
2022-09-16T04:53:56.928Z,11.58
2022-09-16T04:56:25.996Z,11.55
2022-09-16T04:58:56.233Z,11.53
2022-09-16T05:01:28.328Z,11.48
2022-09-16T05:04:00.306Z,11.44
2022-09-16T05:06:32.364Z,11.42
2022-09-16T05:09:00.966Z,11.38
2022-09-16T05:11:29.452Z,11.33
2022-09-16T05:13:59.342Z,11.32
2022-09-16T05:16:26.225Z,11.31
2022-09-16T05:18:55.195Z,11.28
2022-09-16T05:21:23.930Z,11.27
2022-09-16T05:23:51.147Z,11.25
2022-09-16T05:26:23.479Z,11.28
2022-09-16T05:28:53.416Z,11.35
2022-09-16T05:31:23.019Z,11.40
2022-09-16T05:34:01.024Z,11.50
2022-09-16T05:36:29.996Z,11.55
2022-09-16T05:39:21.602Z,11.63
2022-09-16T05:41:43.823Z,11.70
2022-09-16T05:44:10.272Z,11.77
2022-09-16T05:46:37.127Z,11.74
2022-09-16T05:49:04.236Z,11.71
2022-09-16T05:51:31.386Z,11.79
2022-09-16T05:53:59.954Z,11.82
2022-09-16T05:56:30.031Z,11.84
2022-09-16T05:58:58.714Z,11.80
2022-09-16T06:01:31.204Z,11.80
2022-09-16T06:03:58.456Z,11.79
2022-09-16T06:06:26.312Z,11.79
2022-09-16T06:08:55.114Z,11.78
2022-09-16T06:11:22.517Z,11.81
2022-09-16T06:13:57.052Z,11.85
2022-09-16T06:16:28.598Z,11.89
2022-09-16T06:18:57.306Z,11.98
2022-09-16T06:21:24.284Z,12.01
2022-09-16T06:23:50.925Z,12.03
2022-09-16T06:26:23.129Z,12.03
2022-09-16T06:28:51.094Z,12.09
2022-09-16T06:31:25.537Z,12.21
2022-09-16T06:33:53.196Z,12.40
2022-09-16T06:36:22.308Z,12.60
2022-09-16T06:38:49.571Z,12.58
2022-09-16T06:41:17.523Z,12.45
2022-09-16T06:43:44.518Z,12.34
2022-09-16T06:46:16.670Z,12.31
2022-09-16T06:48:45.707Z,12.52
2022-09-16T06:51:15.904Z,12.89
2022-09-16T06:53:43.430Z,13.76
2022-09-16T06:56:12.623Z,15.52
2022-09-16T06:58:52.344Z,15.33
2022-09-16T07:01:21.596Z,17.63
2022-09-16T07:03:50.041Z,18.53
2022-09-16T07:06:17.884Z,19.52
2022-09-16T07:08:45.004Z,22.71
2022-09-16T07:11:15.658Z,24.75
2022-09-16T07:13:43.435Z,23.15
2022-09-16T07:16:13.776Z,21.28
2022-09-16T07:18:41.717Z,21.47
2022-09-16T07:21:15.176Z,22.99
2022-09-16T07:23:43.019Z,25.09
2022-09-16T07:26:15.736Z,26.09
2022-09-16T07:28:44.212Z,27.90
2022-09-16T07:31:12.633Z,29.18
2022-09-16T07:33:41.958Z,29.76
2022-09-16T07:36:10.950Z,30.10
2022-09-16T07:38:37.693Z,30.14
2022-09-16T07:41:18.425Z,30.03
2022-09-16T07:43:45.799Z,30.69
2022-09-16T07:46:14.258Z,30.86
2022-09-16T07:48:40.861Z,31.04
2022-09-16T07:51:19.293Z,30.78
2022-09-16T07:53:47.127Z,30.66
2022-09-16T07:56:18.966Z,30.73
2022-09-16T07:58:46.752Z,29.52
2022-09-16T08:01:15.291Z,26.13
2022-09-16T08:03:43.428Z,24.08
2022-09-16T08:06:15.313Z,22.73
2022-09-16T08:08:42.715Z,22.59
2022-09-16T08:11:09.675Z,23.55
2022-09-16T08:13:37.567Z,23.41
2022-09-16T08:16:07.156Z,21.89
2022-09-16T08:18:34.337Z,20.58
2022-09-16T08:21:11.853Z,19.62
2022-09-16T08:23:38.780Z,19.07
2022-09-16T08:26:08.639Z,18.65
2022-09-16T08:28:45.223Z,18.47
2022-09-16T08:31:18.718Z,18.55
2022-09-16T08:33:45.995Z,18.90
2022-09-16T08:36:18.037Z,19.41
2022-09-16T08:38:45.022Z,19.34
2022-09-16T08:41:36.170Z,19.19
2022-09-16T08:44:28.627Z,21.04
2022-09-16T08:46:59.513Z,22.75
2022-09-16T08:49:37.224Z,23.61
2022-09-16T08:52:23.524Z,24.21
2022-09-16T08:54:54.651Z,24.89
2022-09-16T08:57:24.593Z,25.37
2022-09-16T09:00:20.624Z,25.65
2022-09-16T09:02:55.953Z,25.78
2022-09-16T09:05:40.471Z,25.96
2022-09-16T09:08:21.608Z,26.10
2022-09-16T09:10:57.309Z,26.43
2022-09-16T09:13:42.023Z,26.70
2022-09-16T09:16:20.521Z,26.72
2022-09-16T09:19:00.575Z,25.49
2022-09-16T09:22:02.811Z,24.27
2022-09-16T09:25:02.923Z,22.64
2022-09-16T09:27:54.632Z,22.04
2022-09-16T09:30:24.019Z,22.85
2022-09-16T09:33:41.283Z,24.02
2022-09-16T09:36:20.058Z,23.99
2022-09-16T09:39:11.556Z,23.36
2022-09-16T09:41:46.678Z,23.76
2022-09-16T09:44:28.222Z,24.37
2022-09-16T09:47:00.875Z,23.51
2022-09-16T09:49:37.812Z,22.87
2022-09-16T09:52:39.776Z,22.06
2022-09-16T09:55:16.322Z,21.56
2022-09-16T09:58:05.504Z,21.91
2022-09-16T10:00:32.728Z,21.83
2022-09-16T10:03:06.792Z,22.13
2022-09-16T10:05:35.896Z,22.75
2022-09-16T10:08:07.252Z,23.18
2022-09-16T10:10:35.369Z,22.85
2022-09-16T10:13:13.119Z,22.17
2022-09-16T10:15:40.088Z,22.00
2022-09-16T10:18:29.820Z,21.66
2022-09-16T10:21:01.924Z,21.22
2022-09-16T10:23:30.253Z,20.54
2022-09-16T10:26:25.796Z,19.63
2022-09-16T10:29:02.791Z,19.24
2022-09-16T10:31:38.239Z,18.90
2022-09-16T10:34:13.393Z,18.58
2022-09-16T10:36:40.009Z,18.37
2022-09-16T10:39:06.632Z,18.38
2022-09-16T10:41:47.687Z,18.55
2022-09-16T10:44:28.391Z,18.84
2022-09-16T10:46:58.724Z,18.89
2022-09-16T10:49:33.228Z,18.72
2022-09-16T10:52:22.402Z,18.58
2022-09-16T10:54:49.842Z,18.50
2022-09-16T10:57:31.362Z,18.26
2022-09-16T11:00:14.377Z,18.40
2022-09-16T11:03:08.656Z,18.26
2022-09-16T11:06:03.244Z,18.18
2022-09-16T11:08:49.206Z,18.38
2022-09-16T11:11:45.644Z,19.15
2022-09-16T11:14:34.004Z,18.96
2022-09-16T11:17:12.328Z,18.61
2022-09-16T11:20:03.412Z,18.65
2022-09-16T11:23:23.726Z,19.02
2022-09-16T11:26:27.345Z,19.68
2022-09-16T11:28:59.715Z,19.69
2022-09-16T11:31:35.000Z,19.59
2022-09-16T11:34:05.872Z,19.42
2022-09-16T11:36:55.467Z,19.32
2022-09-16T11:39:31.896Z,19.15
2022-09-16T11:42:27.472Z,19.09
2022-09-16T11:45:18.647Z,18.85
2022-09-16T11:47:50.721Z,18.29
2022-09-16T11:50:42.211Z,17.85
2022-09-16T11:53:37.878Z,17.19
2022-09-16T11:56:20.804Z,16.82
2022-09-16T11:59:30.396Z,16.86
2022-09-16T12:02:13.891Z,17.08
2022-09-16T12:04:46.615Z,17.42
2022-09-16T12:07:25.042Z,17.79
2022-09-16T12:10:23.599Z,18.11
2022-09-16T12:12:57.321Z,18.18
2022-09-16T12:15:46.400Z,18.34
2022-09-16T12:18:27.608Z,18.78
2022-09-16T12:21:03.093Z,18.95
2022-09-16T12:23:34.805Z,18.95
2022-09-16T12:26:09.640Z,19.07
2022-09-16T12:28:42.884Z,19.04
2022-09-16T12:31:23.925Z,19.21
2022-09-16T12:34:11.149Z,19.28
2022-09-16T12:36:43.562Z,18.99
2022-09-16T12:39:12.577Z,19.04
2022-09-16T12:42:16.672Z,19.03
2022-09-16T12:44:56.999Z,18.79
2022-09-16T12:48:00.318Z,18.42
2022-09-16T12:50:50.923Z,18.08
2022-09-16T12:53:42.585Z,17.73
2022-09-16T12:56:42.359Z,17.60
2022-09-16T12:59:27.255Z,17.55
2022-09-16T13:02:03.499Z,17.53
2022-09-16T13:04:52.867Z,17.61
2022-09-16T13:07:24.488Z,17.35
2022-09-16T13:10:01.642Z,17.09
2022-09-16T13:12:39.643Z,16.97
2022-09-16T13:15:25.364Z,16.76
2022-09-16T13:17:53.230Z,16.87
2022-09-16T13:20:39.471Z,17.12
2022-09-16T13:23:18.268Z,17.19
2022-09-16T13:25:58.479Z,17.48
2022-09-16T13:28:38.639Z,17.90
2022-09-16T13:31:10.861Z,17.92
2022-09-16T13:33:38.698Z,17.87
2022-09-16T13:36:29.836Z,17.72
2022-09-16T13:38:59.775Z,17.75
2022-09-16T13:41:47.782Z,17.81
2022-09-16T13:44:39.175Z,18.13
2022-09-16T13:47:11.524Z,18.33
2022-09-16T13:49:57.197Z,18.50
2022-09-16T13:52:31.977Z,18.68
2022-09-16T13:55:11.078Z,18.70
2022-09-16T13:58:13.389Z,18.50
2022-09-16T14:00:54.973Z,18.40
2022-09-16T14:03:41.327Z,18.18
2022-09-16T14:06:41.420Z,17.96
2022-09-16T14:09:19.699Z,18.23
2022-09-16T14:11:49.769Z,18.30
2022-09-16T14:14:45.808Z,18.36
2022-09-16T14:17:16.165Z,18.51
2022-09-16T14:19:46.549Z,18.48
2022-09-16T14:22:19.969Z,18.56
2022-09-16T14:24:50.258Z,18.62
2022-09-16T14:27:29.322Z,18.36
2022-09-16T14:29:58.160Z,18.18
2022-09-16T14:32:26.984Z,18.05
2022-09-16T14:34:56.814Z,18.04
2022-09-16T14:37:26.341Z,18.06
2022-09-16T14:39:55.454Z,18.17
2022-09-16T14:42:23.328Z,18.23
2022-09-16T14:44:55.008Z,18.37
2022-09-16T14:47:39.667Z,18.60
2022-09-16T14:50:15.928Z,18.67
2022-09-16T14:52:53.655Z,18.57
2022-09-16T14:55:30.325Z,18.63
2022-09-16T14:58:00.075Z,18.60
2022-09-16T15:00:39.935Z,18.44
2022-09-16T15:03:42.828Z,18.33
2022-09-16T15:06:15.339Z,18.17
2022-09-16T15:08:48.434Z,18.00
2022-09-16T15:11:46.001Z,18.01
2022-09-16T15:14:07.900Z,17.85
2022-09-16T15:16:44.009Z,17.73
2022-09-16T15:19:21.498Z,17.63
2022-09-16T15:21:48.811Z,17.59
2022-09-16T15:24:20.038Z,17.48
2022-09-16T15:26:47.944Z,17.37
2022-09-16T15:29:23.283Z,17.24
2022-09-16T15:31:50.940Z,17.36
2022-09-16T15:34:23.240Z,17.47
2022-09-16T15:36:52.480Z,17.58
2022-09-16T15:39:26.214Z,17.57
2022-09-16T15:42:20.866Z,17.52
2022-09-16T15:44:50.163Z,17.26
2022-09-16T15:47:24.598Z,16.93
2022-09-16T15:50:00.177Z,16.78
2022-09-16T15:52:26.810Z,16.63
2022-09-16T15:54:59.431Z,16.45
2022-09-16T15:57:36.208Z,16.34
2022-09-16T16:00:16.157Z,16.41
2022-09-16T16:02:51.997Z,16.59
2022-09-16T16:05:21.768Z,16.63
2022-09-16T16:07:54.642Z,16.64
2022-09-16T16:10:31.134Z,16.65
2022-09-16T16:13:00.112Z,16.72
2022-09-16T16:15:39.125Z,16.69
2022-09-16T16:18:08.786Z,16.65
2022-09-16T16:20:38.013Z,16.70
2022-09-16T16:23:04.545Z,16.77
2022-09-16T16:25:43.389Z,16.80
2022-09-16T16:28:09.733Z,16.82
2022-09-16T16:30:40.433Z,16.82
2022-09-16T16:33:07.750Z,16.70
2022-09-16T16:35:34.415Z,16.64
2022-09-16T16:38:00.780Z,16.56
2022-09-16T16:40:27.385Z,16.49
2022-09-16T16:42:53.916Z,16.39
2022-09-16T16:45:21.075Z,16.28
2022-09-16T16:47:47.692Z,16.09
2022-09-16T16:50:14.870Z,15.95
2022-09-16T16:52:41.398Z,15.84
2022-09-16T16:55:08.169Z,15.69
2022-09-16T16:57:34.557Z,15.56
2022-09-16T17:00:01.215Z,15.41
2022-09-16T17:02:27.615Z,15.28
2022-09-16T17:04:54.019Z,15.22
2022-09-16T17:07:28.223Z,15.15
2022-09-16T17:09:57.546Z,15.10
2022-09-16T17:12:24.175Z,15.00
2022-09-16T17:14:50.551Z,14.95
2022-09-16T17:17:17.157Z,14.85
2022-09-16T17:19:43.939Z,14.74
2022-09-16T17:22:19.019Z,14.62
2022-09-16T17:25:08.270Z,14.54
2022-09-16T17:27:49.390Z,14.41
2022-09-16T17:30:31.071Z,14.36
2022-09-16T17:33:00.226Z,14.27
2022-09-16T17:35:29.058Z,14.18
2022-09-16T17:37:55.579Z,14.06
2022-09-16T17:40:22.036Z,13.99
2022-09-16T17:42:52.111Z,13.89
2022-09-16T17:45:21.882Z,13.81
2022-09-16T17:47:50.674Z,13.77
2022-09-16T17:50:22.735Z,13.75
2022-09-16T17:52:49.555Z,13.71
2022-09-16T17:55:16.388Z,13.67
2022-09-16T17:57:42.968Z,13.59
2022-09-16T18:00:10.382Z,13.53
2022-09-16T18:02:36.789Z,13.44
2022-09-16T18:05:08.889Z,13.35
2022-09-16T18:08:29.462Z,13.29
2022-09-16T18:10:30.816Z,13.24
2022-09-16T18:13:00.660Z,13.16
2022-09-16T18:15:28.178Z,13.08
2022-09-16T18:18:00.019Z,13.02
2022-09-16T18:20:28.713Z,12.98
2022-09-16T18:23:00.295Z,12.92
2022-09-16T18:25:26.816Z,12.86
2022-09-16T18:27:53.165Z,12.83
2022-09-16T18:30:19.699Z,12.78
2022-09-16T18:32:47.359Z,12.75
2022-09-16T18:35:13.946Z,12.72
2022-09-16T18:37:40.284Z,12.74
2022-09-16T18:40:07.565Z,12.75
2022-09-16T18:42:41.440Z,12.78
2022-09-16T18:45:08.349Z,12.78
2022-09-16T18:47:34.832Z,12.84
2022-09-16T18:50:01.412Z,12.86
2022-09-16T18:52:27.777Z,12.82
2022-09-16T18:54:54.212Z,12.82
2022-09-16T18:57:23.189Z,12.79
2022-09-16T18:59:49.540Z,12.77
2022-09-16T19:02:15.942Z,12.77
2022-09-16T19:04:43.135Z,12.79
2022-09-16T19:07:12.849Z,12.69
2022-09-16T19:09:40.139Z,12.66
2022-09-16T19:12:11.126Z,12.64
2022-09-16T19:14:47.255Z,12.55
2022-09-16T19:17:27.862Z,12.54
2022-09-16T19:20:08.437Z,12.51
2022-09-16T19:22:38.937Z,12.52
2022-09-16T19:25:05.716Z,12.52
2022-09-16T19:27:32.653Z,12.52
2022-09-16T19:29:59.091Z,12.53
2022-09-16T19:32:25.838Z,12.51
2022-09-16T19:34:52.472Z,12.51
2022-09-16T19:37:20.055Z,12.50
2022-09-16T19:39:48.146Z,12.47
2022-09-16T19:42:14.596Z,12.45
2022-09-16T19:44:41.157Z,12.41
2022-09-16T19:47:07.540Z,12.38
2022-09-16T19:49:33.977Z,12.37
2022-09-16T19:52:00.358Z,12.34
2022-09-16T19:54:26.731Z,12.33
2022-09-16T19:56:53.303Z,12.30
2022-09-16T19:59:20.449Z,12.29
2022-09-16T20:01:47.829Z,12.30
2022-09-16T20:04:19.163Z,12.30
2022-09-16T20:06:45.755Z,12.30
2022-09-16T20:09:12.995Z,12.32
2022-09-16T20:11:45.754Z,12.36
2022-09-16T20:14:19.897Z,12.37
2022-09-16T20:16:47.289Z,12.41
2022-09-16T20:19:15.778Z,12.44
2022-09-16T20:21:42.757Z,12.45
2022-09-16T20:24:14.807Z,12.45
2022-09-16T20:26:41.492Z,12.44
2022-09-16T20:29:07.869Z,12.43
2022-09-16T20:31:36.234Z,12.44
2022-09-16T20:34:04.399Z,12.40
2022-09-16T20:36:36.979Z,12.43
2022-09-16T20:39:04.616Z,12.44
2022-09-16T20:41:32.957Z,12.40
2022-09-16T20:44:00.202Z,12.39
2022-09-16T20:46:31.736Z,12.37
2022-09-16T20:49:01.748Z,12.34
2022-09-16T20:51:33.526Z,12.30
2022-09-16T20:54:12.893Z,12.30
2022-09-16T20:56:42.208Z,12.31
2022-09-16T20:59:10.664Z,12.32
2022-09-16T21:01:38.822Z,12.34
2022-09-16T21:04:07.921Z,12.34
2022-09-16T21:06:36.104Z,12.32
2022-09-16T21:09:06.306Z,12.32
2022-09-16T21:11:33.490Z,12.28
2022-09-16T21:14:03.089Z,12.23
2022-09-16T21:16:34.824Z,12.20
2022-09-16T21:19:03.945Z,12.20
2022-09-16T21:21:31.589Z,12.17
2022-09-16T21:24:00.382Z,12.12
2022-09-16T21:26:29.598Z,12.09
2022-09-16T21:29:01.136Z,12.06
2022-09-16T21:31:29.977Z,12.06
2022-09-16T21:33:58.060Z,12.05
2022-09-16T21:36:25.523Z,12.03
2022-09-16T21:38:52.257Z,12.01
2022-09-16T21:41:23.999Z,12.02
2022-09-16T21:43:55.382Z,12.05
2022-09-16T21:46:28.116Z,12.05
2022-09-16T21:49:08.443Z,12.07
2022-09-16T21:51:38.217Z,12.09
2022-09-16T21:54:07.123Z,12.09
2022-09-16T21:56:37.085Z,12.10
2022-09-16T21:59:03.507Z,12.06
2022-09-16T22:01:31.447Z,12.03
2022-09-16T22:04:00.503Z,11.99
2022-09-16T22:06:27.989Z,11.96
2022-09-16T22:08:56.188Z,11.91
2022-09-16T22:11:31.343Z,11.87
2022-09-16T22:14:00.500Z,11.85
2022-09-16T22:16:29.804Z,11.78
2022-09-16T22:19:01.885Z,11.76
2022-09-16T22:21:30.985Z,11.74
2022-09-16T22:23:59.252Z,11.65
2022-09-16T22:26:26.732Z,11.63
2022-09-16T22:28:53.661Z,11.57
2022-09-16T22:31:22.882Z,11.56
2022-09-16T22:33:51.465Z,11.57
2022-09-16T22:36:20.506Z,11.58
2022-09-16T22:38:48.439Z,11.59
2022-09-16T22:41:16.346Z,11.59
2022-09-16T22:43:44.702Z,11.58
2022-09-16T22:46:20.023Z,11.57
2022-09-16T22:48:47.464Z,11.54
2022-09-16T22:51:16.127Z,11.51
2022-09-16T22:53:43.818Z,11.49
2022-09-16T22:56:12.866Z,11.46
2022-09-16T22:58:39.520Z,11.40
2022-09-16T23:01:18.344Z,11.37
2022-09-16T23:03:46.412Z,11.34
2022-09-16T23:06:15.013Z,11.34
2022-09-16T23:08:43.408Z,11.34
2022-09-16T23:11:13.184Z,11.35
2022-09-16T23:13:44.526Z,11.39
2022-09-16T23:16:17.796Z,11.42
2022-09-16T23:18:53.591Z,11.42
2022-09-16T23:21:22.118Z,11.41
2022-09-16T23:23:50.893Z,11.43
2022-09-16T23:26:24.039Z,11.44
2022-09-16T23:28:52.728Z,11.44
2022-09-16T23:31:22.025Z,11.41
2022-09-16T23:33:48.641Z,11.40
2022-09-16T23:36:16.641Z,11.43
2022-09-16T23:38:43.904Z,11.43
2022-09-16T23:41:13.413Z,11.44
2022-09-16T23:43:41.593Z,11.38
2022-09-16T23:46:09.553Z,11.37
2022-09-16T23:48:36.177Z,11.33
2022-09-16T23:51:02.940Z,11.29
2022-09-16T23:53:29.600Z,11.26
2022-09-16T23:55:56.029Z,11.25
2022-09-16T23:58:22.821Z,11.23
